메인 페이지
METAR-TAF:

METAR-TAF

공항 :

푸아모투 국제공항

통가타푸 섬, 통가

위도: 21-14S, 경도: 175-09W, 고도: 38m

현재 날씨관측

예보는 48분 전, 16:00시(UTC)에 발표되었습니다.
남남동10kt
온도 23°C
습도 65%
기압 1020 hPa
시정 10km 이상
고도 1700ft 상공 구름 조금
고도 10000ft 상공 구름 많음

METAR: NFTF 301600Z 15010KT 9999 FEW017 BKN100 23/16 Q1020

시각: 05:48 (16:48 UTC)

예보

예보는 5 시간 30분 전, 11:18시(UTC)에 발표되었습니다.
예보 대상 시간: 30일 12시부터 31일 12시까지 (UTC)
남남동6kt
시정 10km 이상
고도 2000ft 상공 구름 보통
확률 40% :
일시적
30일 18시부터 31일 12시까지 (UTC)
남남동15kt, 순간 최대 풍속 25kt

TAF: NFTF 301118Z 3012/3112 15006KT 9999 SCT020 PROB40 TEMPO 3018/3112 15015G25KT

4,000개 이상의 공항 관측 자료 및 예보 (METAR 및 TAF 보고).

지도상에서 검색 가능한 기상관측소가 노란 점과 빨간 점으로 표시되어 있습니다.

기상관측소 명을 보려면 표시 위로 마우스를 이동하세요.

날씨 관측과 예보를 보려면 클릭하세요.

지도 변경 : 확대하려면 엑스 표시가 있는 녹색 버튼, 축소하려면 빼기 표시가 있는 녹색 버튼, 다음 페이지의 지도를 보려면 녹색 화살표를 클릭하세요.


METAR-TAF: